Weather at Aviosuperficie Palazzolo Avio

Public forecast

Using degrees Celsius for public forecast. Weather courtesy of forecast.io.

Closest aviation weather report (METAR) to Aviosuperficie Palazzolo Avio

Closest report is Perugia San Francesco d'Assisi – Umbria International Airport, 31.9 nm (59.1 km) SSE.

2024/05/28 04:20 (retrieved 35 minutes ago)

LIRZ 280420Z AUTO 03003KT 9999 FEW087/// 14/14 Q1016

Closest aviation forecast (TAF) to Aviosuperficie Palazzolo Avio

Forecast is more than 6 hours old.

Closest forecast is Forlì Airport, 38.3 nm (71.0 km) N.

2024/05/27 18:18 (retrieved 11 hours ago)

TAF LIPK 272110Z 2718/2818 CNL